Time;durP1;ratioP1;P1;durP2;ratioP2;P2;SDS_P1;SDS_P2;PMS_P1;PMS_P2;Temp;Humidity;BMP_temperature;BMP_pressure;BME280_temperature;BME280_humidity;BME280_pressure;Samples;Min_cycle;Max_cycle;Signal;HPM_P1;HPM_P2
2022/02/07 00:01:11;;;;;;;5.63;1.47;;;;;;;;;;5045041;28;20229;-82
2022/02/07 00:03:44;;;;;;;7.37;1.57;;;;;;;;;;5041926;28;21018;-81
2022/02/07 00:06:13;;;;;;;8.63;1.80;;;;;;;;;;5044833;28;20208;-81
2022/02/07 00:08:40;;;;;;;7.00;1.50;;;;;;;;;;5041710;28;20211;-80
2022/02/07 00:11:09;;;;;;;8.30;2.13;;;;;;;;;;5044293;28;20265;-80
2022/02/07 00:13:36;;;;;;;5.60;1.50;;;;;;;;;;5042823;28;20733;-82
2022/02/07 00:16:03;;;;;;;6.50;1.80;;;;;;;;;;5042911;28;20238;-79
2022/02/07 00:18:32;;;;;;;4.00;1.63;;;;;;;;;;5044822;28;20203;-80
2022/02/07 00:20:59;;;;;;;6.80;1.77;;;;;;;;;;5045141;28;20804;-79
2022/02/07 00:23:27;;;;;;;5.50;1.70;;;;;;;;;;5048779;28;20212;-81
2022/02/07 00:25:54;;;;;;;5.93;1.60;;;;;;;;;;5047880;28;20567;-82
2022/02/07 00:28:23;;;;;;;5.80;1.53;;;;;;;;;;5045818;28;20313;-81
2022/02/07 00:30:50;;;;;;;6.07;1.93;;;;;;;;;;5047094;28;20338;-81
2022/02/07 00:33:19;;;;;;;4.93;1.63;;;;;;;;;;5046036;28;20459;-79
2022/02/07 00:35:46;;;;;;;7.37;1.33;;;;;;;;;;5046995;28;20208;-79
2022/02/07 00:38:17;;;;;;;2.63;0.90;;;;;;;;;;5048106;28;20644;-80
2022/02/07 00:40:58;;;;;;;5.43;1.07;;;;;;;;;;5045958;28;20272;-82
2022/02/07 00:43:32;;;;;;;4.47;0.50;;;;;;;;;;5048345;28;20569;-80
2022/02/07 00:46:06;;;;;;;3.57;0.60;;;;;;;;;;5049818;28;20293;-80
2022/02/07 00:48:33;;;;;;;1.90;0.53;;;;;;;;;;5044163;28;20237;-81
2022/02/07 00:51:00;;;;;;;4.00;0.57;;;;;;;;;;5049957;28;20802;-81
2022/02/07 00:53:27;;;;;;;5.20;0.50;;;;;;;;;;5045916;28;20290;-81
2022/02/07 00:55:55;;;;;;;4.47;0.63;;;;;;;;;;5049467;28;20207;-80
2022/02/07 00:58:23;;;;;;;3.47;0.50;;;;;;;;;;5045956;28;20536;-81
2022/02/07 01:00:52;;;;;;;2.83;0.50;;;;;;;;;;5045284;28;20290;-81
2022/02/07 01:03:19;;;;;;;0.60;0.40;;;;;;;;;;5044004;28;20215;-81
2022/02/07 01:05:47;;;;;;;3.50;0.57;;;;;;;;;;5045467;28;20650;-80
2022/02/07 01:08:15;;;;;;;1.43;0.70;;;;;;;;;;5042105;28;20641;-81
2022/02/07 01:10:52;;;;;;;1.03;0.50;;;;;;;;;;5047232;28;20250;-82
2022/02/07 01:13:29;;;;;;;2.63;0.40;;;;;;;;;;5046807;28;20638;-80
2022/02/07 01:16:08;;;;;;;1.00;0.37;;;;;;;;;;5046309;28;20206;-81
2022/02/07 01:18:58;;;;;;;2.20;0.70;;;;;;;;;;5043304;28;21086;-81
2022/02/07 01:46:54;;;;;;;2.27;0.87;;;;;;;;;;5044473;28;20198;-81
2022/02/07 01:49:45;;;;;;;5.10;1.00;;;;;;;;;;5041532;28;20666;-80
2022/02/07 01:52:35;;;;;;;4.70;1.00;;;;;;;;;;5045888;28;20226;-81
2022/02/07 01:55:09;;;;;;;6.20;1.20;;;;;;;;;;5043761;28;20214;-81
2022/02/07 01:57:36;;;;;;;6.53;1.07;;;;;;;;;;5039865;28;20662;-81
2022/02/07 02:00:04;;;;;;;3.77;1.10;;;;;;;;;;5045717;28;20242;-81
2022/02/07 02:02:32;;;;;;;4.03;0.97;;;;;;;;;;5048620;28;20203;-81
2022/02/07 02:05:01;;;;;;;10.00;1.27;;;;;;;;;;5045065;28;20207;-81
2022/02/07 02:07:28;;;;;;;11.27;1.23;;;;;;;;;;5043832;28;20294;-82
2022/02/07 02:09:55;;;;;;;6.60;1.43;;;;;;;;;;5044343;28;21716;-82
2022/02/07 02:12:26;;;;;;;9.93;1.23;;;;;;;;;;5042254;28;20210;-82
2022/02/07 02:15:01;;;;;;;6.07;1.40;;;;;;;;;;5045538;28;20226;-82
2022/02/07 02:18:08;;;;;;;9.40;1.10;;;;;;;;;;5047373;28;20311;-82
2022/02/07 02:37:28;;;;;;;8.67;1.93;;;;;;;;;;5045447;28;20246;-80
2022/02/07 02:45:31;;;;;;;9.00;1.70;;;;;;;;;;5042637;28;20205;-80
2022/02/07 02:48:02;;;;;;;3.70;1.30;;;;;;;;;;5042477;28;20206;-81
2022/02/07 02:50:32;;;;;;;7.87;1.70;;;;;;;;;;5044986;28;20216;-82
2022/02/07 02:53:01;;;;;;;14.27;2.30;;;;;;;;;;5043622;28;20203;-81
2022/02/07 02:55:29;;;;;;;10.93;1.80;;;;;;;;;;5045010;28;20235;-82
2022/02/07 02:57:56;;;;;;;8.53;1.77;;;;;;;;;;5043195;28;20206;-80
2022/02/07 03:00:24;;;;;;;10.50;2.13;;;;;;;;;;5041544;28;20457;-80
2022/02/07 03:02:51;;;;;;;7.63;1.60;;;;;;;;;;5040062;28;20553;-79
2022/02/07 03:05:18;;;;;;;14.23;2.17;;;;;;;;;;5041893;28;20200;-79
2022/02/07 03:07:45;;;;;;;12.37;2.10;;;;;;;;;;5045628;28;20213;-81
2022/02/07 03:10:22;;;;;;;8.67;2.10;;;;;;;;;;5041913;28;20701;-79
2022/02/07 03:13:02;;;;;;;11.37;2.00;;;;;;;;;;5046656;28;20210;-81
2022/02/07 03:18:14;;;;;;;9.97;2.00;;;;;;;;;;5043283;28;20209;-80
2022/02/07 03:20:41;;;;;;;7.50;1.80;;;;;;;;;;5048551;28;20262;-79
2022/02/07 03:23:08;;;;;;;14.47;2.20;;;;;;;;;;5042576;28;20669;-80
2022/02/07 03:25:35;;;;;;;6.80;1.70;;;;;;;;;;5045409;28;20576;-81
2022/02/07 03:28:04;;;;;;;10.37;2.50;;;;;;;;;;5041881;28;20207;-81
2022/02/07 03:30:31;;;;;;;8.80;1.80;;;;;;;;;;5042702;28;20225;-82
2022/02/07 03:32:58;;;;;;;9.30;2.50;;;;;;;;;;5043543;28;20196;-81
2022/02/07 03:35:26;;;;;;;5.33;1.80;;;;;;;;;;5041924;28;20606;-82
2022/02/07 03:37:53;;;;;;;10.77;2.60;;;;;;;;;;5045103;28;20216;-80
2022/02/07 03:40:20;;;;;;;14.37;2.40;;;;;;;;;;5037730;28;20227;-81
2022/02/07 03:42:47;;;;;;;9.90;2.50;;;;;;;;;;5042366;28;20219;-80
2022/02/07 03:45:16;;;;;;;9.63;2.80;;;;;;;;;;5045159;28;20561;-82
2022/02/07 03:47:43;;;;;;;13.43;2.37;;;;;;;;;;5040755;28;20214;-80
2022/02/07 03:50:11;;;;;;;12.27;2.53;;;;;;;;;;5043482;28;20219;-81
2022/02/07 03:52:38;;;;;;;12.83;2.80;;;;;;;;;;5048348;28;20195;-81
2022/02/07 03:55:06;;;;;;;10.73;2.67;;;;;;;;;;5045847;28;20271;-80
2022/02/07 03:57:33;;;;;;;11.33;2.70;;;;;;;;;;5049089;28;20204;-81
2022/02/07 04:00:04;;;;;;;11.93;2.60;;;;;;;;;;5049578;28;20718;-79
2022/02/07 04:02:35;;;;;;;10.93;2.27;;;;;;;;;;5043024;28;20230;-82
2022/02/07 04:05:23;;;;;;;16.77;2.70;;;;;;;;;;5045089;28;20207;-81
2022/02/07 04:07:50;;;;;;;10.33;2.30;;;;;;;;;;5042789;28;20198;-81
2022/02/07 04:10:18;;;;;;;14.40;2.10;;;;;;;;;;5048181;28;20250;-81
2022/02/07 04:12:51;;;;;;;14.77;2.90;;;;;;;;;;5045070;28;20235;-81
2022/02/07 04:15:19;;;;;;;16.63;2.80;;;;;;;;;;5044848;28;20258;-80
2022/02/07 04:17:54;;;;;;;10.83;2.47;;;;;;;;;;5045567;28;20656;-80
2022/02/07 04:20:21;;;;;;;9.83;2.63;;;;;;;;;;5048280;28;20226;-82
2022/02/07 04:22:49;;;;;;;7.87;2.37;;;;;;;;;;5047127;28;20307;-79
2022/02/07 04:25:16;;;;;;;13.87;2.63;;;;;;;;;;5049775;28;20207;-80
2022/02/07 04:27:43;;;;;;;9.63;2.97;;;;;;;;;;5044900;28;20200;-81
2022/02/07 04:30:11;;;;;;;11.83;3.17;;;;;;;;;;5047410;28;20225;-81
2022/02/07 04:32:38;;;;;;;18.77;2.90;;;;;;;;;;5047144;28;20195;-80
2022/02/07 04:35:07;;;;;;;10.00;2.27;;;;;;;;;;5047466;28;20791;-81
2022/02/07 04:37:34;;;;;;;11.77;2.80;;;;;;;;;;5048899;28;20636;-81
2022/02/07 04:40:01;;;;;;;9.90;2.63;;;;;;;;;;5045530;28;20247;-81
2022/02/07 04:42:29;;;;;;;10.87;2.23;;;;;;;;;;5047593;28;20231;-80
2022/02/07 04:45:12;;;;;;;8.27;2.03;;;;;;;;;;5047912;28;20207;-81
2022/02/07 04:47:56;;;;;;;9.57;2.87;;;;;;;;;;5047886;28;20203;-81
2022/02/07 04:50:34;;;;;;;9.43;2.30;;;;;;;;;;5045772;28;20223;-82
2022/02/07 04:53:17;;;;;;;17.00;2.83;;;;;;;;;;5049074;28;20194;-81
2022/02/07 04:55:49;;;;;;;20.83;2.63;;;;;;;;;;5043970;28;20214;-81
2022/02/07 04:58:29;;;;;;;18.20;2.60;;;;;;;;;;5050741;28;20207;-80
2022/02/07 05:01:09;;;;;;;9.37;2.70;;;;;;;;;;5041850;28;20310;-82
2022/02/07 05:03:42;;;;;;;6.80;1.80;;;;;;;;;;5046155;28;20215;-80
2022/02/07 05:14:25;;;;;;;5.33;1.63;;;;;;;;;;5046066;28;20210;-81
2022/02/07 05:16:55;;;;;;;9.93;1.73;;;;;;;;;;5045480;28;20641;-81
2022/02/07 05:19:23;;;;;;;6.70;2.00;;;;;;;;;;5048133;28;20248;-81
2022/02/07 05:21:51;;;;;;;13.20;2.70;;;;;;;;;;5043941;28;20681;-82
2022/02/07 05:24:18;;;;;;;10.53;2.47;;;;;;;;;;5045871;28;20286;-80
2022/02/07 05:26:46;;;;;;;9.30;2.00;;;;;;;;;;5047699;28;20199;-81
2022/02/07 05:29:13;;;;;;;11.77;2.07;;;;;;;;;;5049451;28;20296;-80
2022/02/07 05:31:40;;;;;;;14.37;2.10;;;;;;;;;;5046140;28;20230;-81
2022/02/07 05:34:08;;;;;;;11.63;2.00;;;;;;;;;;5049173;28;20309;-81
2022/02/07 05:36:40;;;;;;;13.53;2.20;;;;;;;;;;5044814;28;20289;-81
2022/02/07 05:39:09;;;;;;;12.10;2.03;;;;;;;;;;5046573;28;20191;-80
2022/02/07 05:41:36;;;;;;;13.43;2.60;;;;;;;;;;5042837;28;20254;-81
2022/02/07 05:44:03;;;;;;;15.47;2.70;;;;;;;;;;5044582;28;20238;-81
2022/02/07 05:46:31;;;;;;;13.60;2.90;;;;;;;;;;5046556;28;20653;-82
2022/02/07 05:48:58;;;;;;;13.23;3.07;;;;;;;;;;5038389;28;20254;-81
2022/02/07 05:51:25;;;;;;;11.53;2.90;;;;;;;;;;5044203;28;20223;-81
2022/02/07 05:53:52;;;;;;;11.43;2.80;;;;;;;;;;5043005;28;20242;-80
2022/02/07 05:56:21;;;;;;;8.23;2.40;;;;;;;;;;5043841;28;20658;-80
2022/02/07 05:58:48;;;;;;;7.23;2.40;;;;;;;;;;5044960;28;20211;-81
2022/02/07 06:01:15;;;;;;;14.10;3.40;;;;;;;;;;5045044;28;20698;-80
2022/02/07 06:03:42;;;;;;;11.27;2.90;;;;;;;;;;5045202;28;20209;-81
2022/02/07 06:06:09;;;;;;;21.87;3.30;;;;;;;;;;5043092;28;20200;-82
2022/02/07 06:08:37;;;;;;;18.13;3.53;;;;;;;;;;5039105;28;20200;-81
2022/02/07 06:11:06;;;;;;;12.63;2.90;;;;;;;;;;5044484;28;20229;-81
2022/02/07 06:13:38;;;;;;;18.27;2.87;;;;;;;;;;5042500;28;20685;-81
2022/02/07 06:16:05;;;;;;;10.20;2.70;;;;;;;;;;5042740;28;20203;-81
2022/02/07 06:18:33;;;;;;;20.23;3.13;;;;;;;;;;5046511;28;20260;-81
2022/02/07 06:21:03;;;;;;;15.00;3.43;;;;;;;;;;5044567;28;20296;-82
2022/02/07 06:23:31;;;;;;;14.97;2.50;;;;;;;;;;5046414;28;20406;-79
2022/02/07 06:25:58;;;;;;;23.20;4.37;;;;;;;;;;5044455;28;20271;-80
2022/02/07 06:28:25;;;;;;;14.67;4.10;;;;;;;;;;5048784;28;20649;-79
2022/02/07 06:30:54;;;;;;;11.10;3.03;;;;;;;;;;5045940;28;20218;-80
2022/02/07 06:33:21;;;;;;;13.67;3.27;;;;;;;;;;5038885;28;20202;-80
2022/02/07 06:35:48;;;;;;;17.77;3.03;;;;;;;;;;5046660;28;20203;-79
2022/02/07 06:38:15;;;;;;;12.63;2.80;;;;;;;;;;5046107;28;20665;-80
2022/02/07 06:40:42;;;;;;;8.03;2.73;;;;;;;;;;5045978;28;20222;-80
2022/02/07 06:43:09;;;;;;;21.87;3.30;;;;;;;;;;5046042;28;20248;-80
2022/02/07 06:45:36;;;;;;;14.57;2.80;;;;;;;;;;5045614;28;20226;-80
2022/02/07 06:48:05;;;;;;;20.47;2.93;;;;;;;;;;5043187;28;20204;-80
2022/02/07 06:50:32;;;;;;;15.33;3.50;;;;;;;;;;5045325;28;20241;-80
2022/02/07 06:53:00;;;;;;;13.53;3.10;;;;;;;;;;5040905;28;20203;-79
2022/02/07 06:55:27;;;;;;;25.30;3.33;;;;;;;;;;5043768;28;20265;-79
2022/02/07 06:57:54;;;;;;;20.20;3.07;;;;;;;;;;5044407;28;21132;-79
2022/02/07 07:00:21;;;;;;;15.67;3.20;;;;;;;;;;5047674;28;20226;-80
2022/02/07 07:02:49;;;;;;;13.57;3.03;;;;;;;;;;5040651;28;20317;-79
2022/02/07 07:05:22;;;;;;;9.33;3.13;;;;;;;;;;5046742;28;20225;-79
2022/02/07 07:07:49;;;;;;;16.07;3.23;;;;;;;;;;5040585;28;20253;-79
2022/02/07 07:10:17;;;;;;;15.57;3.03;;;;;;;;;;5042236;28;20223;-79
2022/02/07 07:12:47;;;;;;;14.63;3.10;;;;;;;;;;5044816;28;20213;-80
2022/02/07 07:15:18;;;;;;;14.73;3.23;;;;;;;;;;5044130;28;20571;-80
2022/02/07 07:17:45;;;;;;;9.27;3.37;;;;;;;;;;5045524;28;20195;-80
2022/02/07 07:20:12;;;;;;;14.43;3.23;;;;;;;;;;5048364;28;20265;-80
2022/02/07 07:22:41;;;;;;;13.23;3.20;;;;;;;;;;5046382;28;20222;-80
2022/02/07 07:25:14;;;;;;;11.93;3.10;;;;;;;;;;5045152;28;20634;-79
2022/02/07 07:27:55;;;;;;;10.13;3.07;;;;;;;;;;5043524;28;20210;-79
2022/02/07 07:30:26;;;;;;;20.40;4.13;;;;;;;;;;5045465;28;20249;-79
2022/02/07 07:32:58;;;;;;;15.30;3.47;;;;;;;;;;5045933;28;20209;-79
2022/02/07 07:35:25;;;;;;;17.03;4.03;;;;;;;;;;5041173;28;20214;-79
2022/02/07 07:37:54;;;;;;;10.77;3.83;;;;;;;;;;5044816;28;20276;-79
2022/02/07 07:40:21;;;;;;;15.00;3.63;;;;;;;;;;5043685;28;20230;-79
2022/02/07 07:42:52;;;;;;;13.63;3.40;;;;;;;;;;5039244;28;20234;-79
2022/02/07 07:45:23;;;;;;;7.60;3.20;;;;;;;;;;5043369;28;20203;-78
2022/02/07 07:47:51;;;;;;;9.60;3.03;;;;;;;;;;5043026;28;20276;-79
2022/02/07 07:50:23;;;;;;;8.03;3.20;;;;;;;;;;5038730;28;20453;-79
2022/02/07 07:53:11;;;;;;;14.83;4.17;;;;;;;;;;5041670;28;20666;-79
2022/02/07 08:01:26;;;;;;;11.53;3.63;;;;;;;;;;5040736;28;20222;-78
2022/02/07 08:03:54;;;;;;;15.37;4.07;;;;;;;;;;5042135;28;20704;-78
2022/02/07 08:06:23;;;;;;;17.47;4.60;;;;;;;;;;5041320;28;20199;-79
2022/02/07 08:09:13;;;;;;;15.13;3.80;;;;;;;;;;5041308;28;20241;-78
2022/02/07 08:11:40;;;;;;;14.60;3.73;;;;;;;;;;5043683;28;20301;-78
2022/02/07 08:14:08;;;;;;;12.97;3.13;;;;;;;;;;5042940;28;20246;-80
2022/02/07 08:16:35;;;;;;;16.17;4.43;;;;;;;;;;5039399;28;20843;-79
2022/02/07 08:19:06;;;;;;;9.50;3.10;;;;;;;;;;5043739;28;20647;-79
2022/02/07 08:21:34;;;;;;;9.30;3.17;;;;;;;;;;5045794;28;20231;-79
2022/02/07 08:24:01;;;;;;;8.80;3.17;;;;;;;;;;5047550;28;20310;-79
2022/02/07 08:26:28;;;;;;;14.90;3.53;;;;;;;;;;5048759;28;20310;-78
2022/02/07 08:28:56;;;;;;;8.20;3.37;;;;;;;;;;5051864;28;20214;-80
2022/02/07 08:31:24;;;;;;;17.37;3.93;;;;;;;;;;5046660;28;20223;-79
2022/02/07 08:33:51;;;;;;;14.00;3.90;;;;;;;;;;5046638;28;20230;-80
2022/02/07 08:36:19;;;;;;;15.73;3.57;;;;;;;;;;5052102;28;20202;-79
2022/02/07 08:38:46;;;;;;;13.33;3.27;;;;;;;;;;5047735;28;20652;-79
2022/02/07 08:41:16;;;;;;;15.13;3.20;;;;;;;;;;5054048;28;20283;-79
2022/02/07 08:43:43;;;;;;;10.77;3.60;;;;;;;;;;5051814;28;20246;-78
2022/02/07 08:46:12;;;;;;;12.13;3.70;;;;;;;;;;5053353;28;20234;-79
2022/02/07 08:48:39;;;;;;;16.97;3.57;;;;;;;;;;5055872;28;20294;-79
2022/02/07 08:51:06;;;;;;;13.90;3.67;;;;;;;;;;5052817;28;20298;-79
2022/02/07 08:53:38;;;;;;;17.47;4.00;;;;;;;;;;5047851;28;20278;-79
2022/02/07 08:56:06;;;;;;;18.27;3.67;;;;;;;;;;5053541;28;20199;-78
2022/02/07 08:58:35;;;;;;;13.00;3.77;;;;;;;;;;5052140;28;20203;-79
2022/02/07 09:01:11;;;;;;;15.67;3.67;;;;;;;;;;5044746;28;20222;-79
2022/02/07 09:06:37;;;;;;;18.07;4.43;;;;;;;;;;5043092;28;20204;-81
2022/02/07 09:09:10;;;;;;;17.00;7.30;;;;;;;;;;5044980;28;20217;-80
2022/02/07 09:11:38;;;;;;;15.20;4.17;;;;;;;;;;5043436;28;20223;-80
2022/02/07 09:14:11;;;;;;;20.23;4.53;;;;;;;;;;5042094;28;20234;-80
2022/02/07 09:16:39;;;;;;;15.70;4.03;;;;;;;;;;5045534;28;20207;-81
2022/02/07 09:19:09;;;;;;;15.37;3.97;;;;;;;;;;5043297;28;20217;-79
2022/02/07 09:21:36;;;;;;;19.63;4.17;;;;;;;;;;5046118;28;20235;-79
2022/02/07 09:24:04;;;;;;;17.00;3.97;;;;;;;;;;5043404;28;20254;-79
2022/02/07 09:26:31;;;;;;;15.20;4.27;;;;;;;;;;5044745;28;20199;-79
2022/02/07 09:28:58;;;;;;;10.50;3.03;;;;;;;;;;5045499;28;20245;-81
2022/02/07 09:31:25;;;;;;;17.00;4.37;;;;;;;;;;5042390;28;20666;-79
2022/02/07 09:33:53;;;;;;;20.13;5.47;;;;;;;;;;5042780;28;20282;-79
2022/02/07 09:36:22;;;;;;;16.33;4.07;;;;;;;;;;5046629;28;20211;-81
2022/02/07 09:38:50;;;;;;;20.93;4.23;;;;;;;;;;5042631;28;20632;-78
2022/02/07 09:41:20;;;;;;;16.63;4.03;;;;;;;;;;5042214;28;20233;-79
2022/02/07 09:43:48;;;;;;;14.27;4.10;;;;;;;;;;5046293;28;20223;-80
2022/02/07 09:46:21;;;;;;;12.43;3.67;;;;;;;;;;5042429;28;20780;-78
2022/02/07 09:48:52;;;;;;;14.70;3.97;;;;;;;;;;5045846;28;20300;-79
2022/02/07 09:51:21;;;;;;;15.23;4.40;;;;;;;;;;5045505;28;20713;-82
2022/02/07 09:53:48;;;;;;;23.67;3.93;;;;;;;;;;5041544;28;20196;-79
2022/02/07 09:56:16;;;;;;;17.90;3.87;;;;;;;;;;5061025;28;20655;-83
2022/02/07 09:58:48;;;;;;;12.13;3.47;;;;;;;;;;5063609;28;20278;-81
2022/02/07 10:01:23;;;;;;;18.23;3.87;;;;;;;;;;5054769;28;20219;-83
2022/02/07 10:03:56;;;;;;;25.40;4.23;;;;;;;;;;5050477;28;20502;-80
2022/02/07 10:06:38;;;;;;;15.97;4.17;;;;;;;;;;5051596;28;20248;-82
2022/02/07 10:09:35;;;;;;;19.43;4.27;;;;;;;;;;5054499;28;20210;-81
2022/02/07 10:12:10;;;;;;;14.70;3.90;;;;;;;;;;5049950;28;20281;-82
2022/02/07 10:14:45;;;;;;;25.20;4.37;;;;;;;;;;5055999;28;20720;-82
2022/02/07 10:17:28;;;;;;;10.47;3.47;;;;;;;;;;5044868;28;20206;-83
2022/02/07 10:20:17;;;;;;;13.80;4.37;;;;;;;;;;5052644;28;20214;-80
2022/02/07 10:37:43;;;;;;;18.17;4.33;;;;;;;;;;5047826;28;20684;-82
2022/02/07 10:40:17;;;;;;;15.03;4.30;;;;;;;;;;5050560;28;20284;-82
2022/02/07 10:43:20;;;;;;;21.10;4.90;;;;;;;;;;5050664;28;20221;-83
2022/02/07 10:45:59;;;;;;;15.00;4.47;;;;;;;;;;5049513;28;20237;-81
2022/02/07 10:48:34;;;;;;;15.33;4.07;;;;;;;;;;5054921;28;20203;-81
2022/02/07 10:51:22;;;;;;;18.27;4.60;;;;;;;;;;5046783;28;20230;-80
2022/02/07 10:53:51;;;;;;;19.33;3.87;;;;;;;;;;5041420;28;20270;-81
2022/02/07 10:56:21;;;;;;;16.23;4.23;;;;;;;;;;5050322;28;20242;-82
2022/02/07 10:58:51;;;;;;;17.47;4.27;;;;;;;;;;5049265;28;20214;-82
2022/02/07 11:01:20;;;;;;;19.60;4.43;;;;;;;;;;5053333;28;20733;-81
2022/02/07 11:03:51;;;;;;;13.17;3.40;;;;;;;;;;5052010;28;20690;-82
2022/02/07 11:06:23;;;;;;;14.17;3.40;;;;;;;;;;5048768;28;20282;-81
2022/02/07 11:14:40;;;;;;;21.43;3.57;;;;;;;;;;5047913;28;20211;-83
2022/02/07 11:17:23;;;;;;;20.17;3.40;;;;;;;;;;5051248;28;20202;-83
2022/02/07 11:19:58;;;;;;;15.87;3.43;;;;;;;;;;5045406;28;20203;-83
2022/02/07 11:22:41;;;;;;;10.43;3.33;;;;;;;;;;5055025;28;20218;-82
2022/02/07 11:25:24;;;;;;;5.77;2.10;;;;;;;;;;5053037;28;20225;-81
2022/02/07 11:27:55;;;;;;;13.63;2.67;;;;;;;;;;5052725;28;20214;-81
2022/02/07 11:30:42;;;;;;;12.13;2.80;;;;;;;;;;5052956;28;20246;-82
2022/02/07 11:33:29;;;;;;;20.17;4.17;;;;;;;;;;5050801;28;20649;-81
2022/02/07 11:35:56;;;;;;;13.97;2.80;;;;;;;;;;5051434;28;20218;-82
2022/02/07 11:38:26;;;;;;;10.93;3.67;;;;;;;;;;5053900;28;20234;-81
2022/02/07 11:41:01;;;;;;;15.33;3.00;;;;;;;;;;5054627;28;20218;-81
2022/02/07 11:43:29;;;;;;;22.43;3.50;;;;;;;;;;5051736;28;20229;-81
2022/02/07 11:45:58;;;;;;;22.23;2.93;;;;;;;;;;5050972;28;20209;-83
2022/02/07 11:48:35;;;;;;;11.77;3.13;;;;;;;;;;5049697;28;20254;-80
2022/02/07 11:51:03;;;;;;;14.43;2.33;;;;;;;;;;5050224;28;20897;-80
2022/02/07 11:53:34;;;;;;;11.37;2.60;;;;;;;;;;5050804;28;20658;-81
2022/02/07 11:56:09;;;;;;;16.70;3.00;;;;;;;;;;5051112;28;20282;-82
2022/02/07 11:58:47;;;;;;;10.97;2.87;;;;;;;;;;5055634;28;20206;-82
2022/02/07 12:01:17;;;;;;;12.83;2.80;;;;;;;;;;5049994;28;20266;-82
2022/02/07 12:03:52;;;;;;;10.07;2.47;;;;;;;;;;5046997;28;20215;-82
2022/02/07 12:06:23;;;;;;;17.70;3.33;;;;;;;;;;5055205;28;20607;-82
2022/02/07 12:08:51;;;;;;;13.30;3.20;;;;;;;;;;5042892;28;20231;-83
2022/02/07 12:11:18;;;;;;;15.17;2.83;;;;;;;;;;5048181;28;20227;-82
2022/02/07 12:13:45;;;;;;;16.80;3.30;;;;;;;;;;5059865;28;20264;-81
2022/02/07 12:16:15;;;;;;;11.37;3.13;;;;;;;;;;5058018;28;20618;-82
2022/02/07 12:18:42;;;;;;;21.30;3.30;;;;;;;;;;5060890;28;20203;-82
2022/02/07 12:21:24;;;;;;;16.67;2.70;;;;;;;;;;5059143;28;20223;-81
2022/02/07 12:23:53;;;;;;;12.60;2.60;;;;;;;;;;5060976;28;20235;-82
2022/02/07 12:26:20;;;;;;;18.30;3.03;;;;;;;;;;5060714;28;20206;-82
2022/02/07 12:28:49;;;;;;;13.33;2.70;;;;;;;;;;5047536;28;20210;-82
2022/02/07 12:31:19;;;;;;;17.40;3.33;;;;;;;;;;5052065;28;20214;-82
2022/02/07 12:33:47;;;;;;;18.43;2.97;;;;;;;;;;5050970;28;20223;-82
2022/02/07 12:36:15;;;;;;;16.43;3.03;;;;;;;;;;5055798;28;20704;-82
2022/02/07 12:38:45;;;;;;;14.17;3.37;;;;;;;;;;5054168;28;20195;-82
2022/02/07 12:41:13;;;;;;;18.77;3.47;;;;;;;;;;5056808;28;20223;-82
2022/02/07 12:43:41;;;;;;;13.30;3.10;;;;;;;;;;5056923;28;20225;-82
2022/02/07 12:46:11;;;;;;;16.00;3.33;;;;;;;;;;5057905;28;20229;-82
2022/02/07 12:48:43;;;;;;;18.83;3.27;;;;;;;;;;5059500;28;20703;-82
2022/02/07 12:51:11;;;;;;;15.27;3.07;;;;;;;;;;5064590;28;20261;-82
2022/02/07 12:53:39;;;;;;;20.80;5.47;;;;;;;;;;5055385;28;20207;-82
2022/02/07 12:56:09;;;;;;;14.33;3.23;;;;;;;;;;5055560;28;20281;-81
2022/02/07 12:58:38;;;;;;;12.50;3.10;;;;;;;;;;5051376;28;20318;-81
2022/02/07 13:01:22;;;;;;;10.13;2.57;;;;;;;;;;5055105;28;20216;-82
2022/02/07 13:03:53;;;;;;;12.47;2.47;;;;;;;;;;5051702;28;20233;-81
2022/02/07 13:06:25;;;;;;;12.23;2.93;;;;;;;;;;5051616;28;20254;-81
2022/02/07 13:08:52;;;;;;;15.00;2.93;;;;;;;;;;5057135;28;20282;-81
2022/02/07 13:11:27;;;;;;;20.60;2.63;;;;;;;;;;5050423;28;20227;-82
2022/02/07 13:13:55;;;;;;;12.13;2.70;;;;;;;;;;5046599;28;20199;-82
2022/02/07 13:16:23;;;;;;;19.37;3.20;;;;;;;;;;5053867;28;20230;-82
2022/02/07 13:18:50;;;;;;;25.70;4.43;;;;;;;;;;5049550;28;20203;-82
2022/02/07 13:21:18;;;;;;;16.47;1.70;;;;;;;;;;5051112;28;20223;-82
2022/02/07 13:23:47;;;;;;;13.40;3.00;;;;;;;;;;5050204;28;20251;-81
2022/02/07 13:26:15;;;;;;;21.23;7.40;;;;;;;;;;5045553;28;20256;-82
2022/02/07 13:28:44;;;;;;;20.53;5.40;;;;;;;;;;5048090;28;20262;-81
2022/02/07 13:31:12;;;;;;;12.20;2.63;;;;;;;;;;5048406;28;20254;-83
2022/02/07 13:33:46;;;;;;;18.83;4.97;;;;;;;;;;5050778;28;20448;-82
2022/02/07 13:36:13;;;;;;;17.60;4.20;;;;;;;;;;5050569;28;20799;-81
2022/02/07 13:38:41;;;;;;;26.57;11.10;;;;;;;;;;5047513;28;20254;-81
2022/02/07 13:41:08;;;;;;;55.57;31.87;;;;;;;;;;5053491;28;20314;-81
2022/02/07 13:43:38;;;;;;;14.80;4.30;;;;;;;;;;5047432;28;20606;-81
2022/02/07 13:46:07;;;;;;;16.07;3.60;;;;;;;;;;5053703;28;20199;-81
2022/02/07 13:48:35;;;;;;;14.87;3.47;;;;;;;;;;5055755;28;20799;-81
2022/02/07 13:51:03;;;;;;;14.53;4.73;;;;;;;;;;5052637;28;20246;-81
2022/02/07 13:53:30;;;;;;;16.23;4.10;;;;;;;;;;5053174;28;20754;-81
2022/02/07 13:55:59;;;;;;;21.17;5.40;;;;;;;;;;5055178;28;20218;-81
2022/02/07 13:58:33;;;;;;;18.33;4.93;;;;;;;;;;5055275;28;20229;-81
2022/02/07 14:01:01;;;;;;;22.63;5.67;;;;;;;;;;5059096;28;20798;-82
2022/02/07 14:03:32;;;;;;;13.37;3.83;;;;;;;;;;5050815;28;20215;-82
2022/02/07 14:06:05;;;;;;;14.80;2.90;;;;;;;;;;5054327;28;20245;-82
2022/02/07 14:08:34;;;;;;;20.33;5.07;;;;;;;;;;5048825;28;20235;-81
2022/02/07 14:11:02;;;;;;;14.50;3.97;;;;;;;;;;5050309;28;20239;-81
2022/02/07 14:13:29;;;;;;;16.50;5.67;;;;;;;;;;5052286;28;20219;-81
2022/02/07 14:15:56;;;;;;;12.00;3.57;;;;;;;;;;5053841;28;20612;-81
2022/02/07 14:18:25;;;;;;;20.23;4.70;;;;;;;;;;5051193;28;20205;-81
2022/02/07 14:20:54;;;;;;;16.77;4.43;;;;;;;;;;5051762;28;20705;-81
2022/02/07 14:23:22;;;;;;;14.83;4.97;;;;;;;;;;5049342;28;20238;-81
2022/02/07 14:25:53;;;;;;;19.67;4.10;;;;;;;;;;5048417;28;20284;-81
2022/02/07 14:28:20;;;;;;;13.53;4.97;;;;;;;;;;5048601;28;20215;-80
2022/02/07 14:30:47;;;;;;;13.50;2.93;;;;;;;;;;5048568;28;20276;-81
2022/02/07 14:33:15;;;;;;;14.77;3.50;;;;;;;;;;5048219;28;20257;-82
2022/02/07 14:35:42;;;;;;;10.77;2.70;;;;;;;;;;5054290;28;20294;-82
2022/02/07 14:38:11;;;;;;;12.50;2.10;;;;;;;;;;5056507;28;20241;-82
2022/02/07 14:40:41;;;;;;;10.63;2.00;;;;;;;;;;5047435;28;20231;-82
2022/02/07 14:43:08;;;;;;;9.67;2.17;;;;;;;;;;5049182;28;20294;-81
2022/02/07 14:45:41;;;;;;;11.97;2.80;;;;;;;;;;5052279;28;20246;-82
2022/02/07 14:48:08;;;;;;;9.27;2.13;;;;;;;;;;5054278;28;20207;-81
2022/02/07 14:50:36;;;;;;;10.57;2.13;;;;;;;;;;5051568;28;20267;-82
2022/02/07 14:53:04;;;;;;;14.53;2.20;;;;;;;;;;5050587;28;20227;-81
2022/02/07 14:55:32;;;;;;;8.33;2.43;;;;;;;;;;5056541;28;20205;-82
2022/02/07 14:58:00;;;;;;;7.33;2.50;;;;;;;;;;5049686;28;20232;-82
2022/02/07 15:00:28;;;;;;;9.60;2.83;;;;;;;;;;5052558;28;20319;-81
2022/02/07 15:02:57;;;;;;;11.23;2.43;;;;;;;;;;5054052;28;20285;-82
2022/02/07 15:05:25;;;;;;;13.17;3.23;;;;;;;;;;5050377;28;20223;-82
2022/02/07 15:07:52;;;;;;;11.97;2.30;;;;;;;;;;5044374;28;20203;-82
2022/02/07 15:10:20;;;;;;;14.40;2.10;;;;;;;;;;5046511;28;20334;-81
2022/02/07 15:12:49;;;;;;;12.60;2.90;;;;;;;;;;5045720;28;20646;-81
2022/02/07 15:15:16;;;;;;;8.13;2.50;;;;;;;;;;5048519;28;20591;-81
2022/02/07 15:17:44;;;;;;;12.70;4.53;;;;;;;;;;5046535;28;20624;-81
2022/02/07 15:20:13;;;;;;;11.67;3.80;;;;;;;;;;5046954;28;20233;-82
2022/02/07 15:22:45;;;;;;;11.97;3.37;;;;;;;;;;5048138;28;20204;-82
2022/02/07 15:25:17;;;;;;;11.80;5.40;;;;;;;;;;5046511;28;20219;-83
2022/02/07 15:27:44;;;;;;;14.47;4.40;;;;;;;;;;5043650;28;20738;-81
2022/02/07 15:30:14;;;;;;;9.03;2.50;;;;;;;;;;5047347;28;20254;-82
2022/02/07 15:32:44;;;;;;;17.37;5.77;;;;;;;;;;5049669;28;20203;-82
2022/02/07 15:35:12;;;;;;;12.37;3.23;;;;;;;;;;5046600;28;20223;-82
2022/02/07 15:37:39;;;;;;;12.37;3.10;;;;;;;;;;5047139;28;20292;-81
2022/02/07 15:40:07;;;;;;;11.00;3.10;;;;;;;;;;5054187;28;20417;-82
2022/02/07 15:42:37;;;;;;;13.73;3.07;;;;;;;;;;5049222;28;20215;-82
2022/02/07 15:45:05;;;;;;;9.97;2.60;;;;;;;;;;5052342;28;20220;-82
2022/02/07 15:47:34;;;;;;;14.23;2.83;;;;;;;;;;5055847;28;20207;-82
2022/02/07 15:50:02;;;;;;;9.27;3.13;;;;;;;;;;5053101;28;20219;-82
2022/02/07 15:52:30;;;;;;;17.77;3.50;;;;;;;;;;5052497;28;20241;-81
2022/02/07 15:54:58;;;;;;;14.97;3.13;;;;;;;;;;5051726;28;20196;-82
2022/02/07 15:57:25;;;;;;;14.43;3.57;;;;;;;;;;5053939;28;20218;-82
2022/02/07 15:59:52;;;;;;;16.97;3.70;;;;;;;;;;5048770;28;20231;-82
2022/02/07 16:02:19;;;;;;;11.83;3.73;;;;;;;;;;5056642;28;20708;-82
2022/02/07 16:04:48;;;;;;;14.60;5.37;;;;;;;;;;5050003;28;20595;-82
2022/02/07 16:07:15;;;;;;;11.77;3.67;;;;;;;;;;5054479;28;20208;-82
2022/02/07 16:09:42;;;;;;;15.77;3.43;;;;;;;;;;5053578;28;20297;-82
2022/02/07 16:12:13;;;;;;;14.03;3.30;;;;;;;;;;5053343;28;20204;-82
2022/02/07 16:14:40;;;;;;;11.60;3.53;;;;;;;;;;5052946;28;20210;-82
2022/02/07 16:17:08;;;;;;;15.03;4.30;;;;;;;;;;5052415;28;20213;-82
2022/02/07 16:19:36;;;;;;;11.53;3.50;;;;;;;;;;5052975;28;20680;-81